Time,TemperatureF,DewpointF,PressureIn,WindDirection,WindDirectionDegrees,WindSpeedMPH,WindSpeedGustMPH,Humidity,HourlyPrecipIn,Conditions,Clouds,dailyrainin,SoftwareType,DateUTC
2013-02-20 00:10:00,36.6,26.0,29.74,West,270,4.0,10.0,65,0.00,,,0.00,weatherlink.com 1.10,2013-02-20 05:10:00,
2013-02-20 00:25:00,36.2,25.0,29.74,North,349,2.0,12.0,63,0.00,,,0.00,weatherlink.com 1.10,2013-02-20 05:25:00,
2013-02-20 00:40:00,35.8,23.0,29.74,WNW,287,2.0,12.0,61,0.00,,,0.00,weatherlink.com 1.10,2013-02-20 05:40:00,
2013-02-20 00:55:00,35.2,24.0,29.74,NW,318,1.0,7.0,63,0.00,,,0.00,weatherlink.com 1.10,2013-02-20 05:55:00,
2013-02-20 01:10:00,34.9,23.0,29.74,NW,304,1.0,8.0,63,0.00,,,0.00,weatherlink.com 1.10,2013-02-20 06:10:00,
2013-02-20 01:25:00,34.6,23.0,29.74,NW,311,2.0,10.0,63,0.00,,,0.00,weatherlink.com 1.10,2013-02-20 06:25:00,
2013-02-20 01:40:00,34.3,23.0,29.75,WSW,253,4.0,5.0,63,0.00,,,0.00,weatherlink.com 1.10,2013-02-20 06:40:00,
2013-02-20 01:55:00,34.1,23.0,29.75,NNW,335,1.0,3.0,65,0.00,,,0.00,weatherlink.com 1.10,2013-02-20 06:55:00,
2013-02-20 02:10:00,33.8,23.0,29.75,North,11,0.0,7.0,66,0.00,,,0.00,weatherlink.com 1.10,2013-02-20 07:10:00,
2013-02-20 02:25:00,33.3,23.0,29.77,NW,322,4.0,6.0,67,0.00,,,0.00,weatherlink.com 1.10,2013-02-20 07:25:00,
2013-02-20 02:40:00,33.0,23.0,29.76,South,190,2.0,8.0,68,0.00,,,0.00,weatherlink.com 1.10,2013-02-20 07:40:00,
2013-02-20 02:55:00,32.5,23.0,29.76,NW,326,2.0,6.0,69,0.00,,,0.00,weatherlink.com 1.10,2013-02-20 07:55:00,
2013-02-20 03:10:00,32.2,22.0,29.77,SW,233,3.0,7.0,66,0.00,,,0.00,weatherlink.com 1.10,2013-02-20 08:10:00,
2013-02-20 03:25:00,32.0,19.0,29.77,WSW,243,3.0,12.0,59,0.00,,,0.00,weatherlink.com 1.10,2013-02-20 08:25:00,
2013-02-20 03:40:00,31.5,19.0,29.77,NW,308,2.0,6.0,61,0.00,,,0.00,weatherlink.com 1.10,2013-02-20 08:40:00,
2013-02-20 03:55:00,31.1,18.0,29.78,West,278,3.0,16.0,58,0.00,,,0.00,weatherlink.com 1.10,2013-02-20 08:55:00,
2013-02-20 04:11:00,30.8,17.0,29.78,SW,232,2.0,6.0,57,0.00,,,0.00,weatherlink.com 1.10,2013-02-20 09:11:00,
2013-02-20 04:26:00,30.4,17.0,29.79,WNW,285,0.0,5.0,58,0.00,,,0.00,weatherlink.com 1.10,2013-02-20 09:26:00,
2013-02-20 04:41:00,30.2,17.0,29.79,WNW,300,2.0,9.0,58,0.00,,,0.00,weatherlink.com 1.10,2013-02-20 09:41:00,
2013-02-20 04:56:00,30.1,17.0,29.80,West,260,3.0,6.0,58,0.00,,,0.00,weatherlink.com 1.10,2013-02-20 09:56:00,
2013-02-20 05:11:00,30.0,17.0,29.80,NW,305,1.0,6.0,59,0.00,,,0.00,weatherlink.com 1.10,2013-02-20 10:11:00,
2013-02-20 05:26:00,29.8,17.0,29.80,NW,324,2.0,12.0,59,0.00,,,0.00,weatherlink.com 1.10,2013-02-20 10:26:00,
2013-02-20 05:41:00,29.6,17.0,29.81,WNW,285,1.0,9.0,60,0.00,,,0.00,weatherlink.com 1.10,2013-02-20 10:41:00,
2013-02-20 05:56:00,29.4,17.0,29.81,SW,229,3.0,6.0,60,0.00,,,0.00,weatherlink.com 1.10,2013-02-20 10:56:00,
2013-02-20 06:11:00,29.3,18.0,29.82,NE,37,2.0,5.0,63,0.00,,,0.00,weatherlink.com 1.10,2013-02-20 11:11:00,
2013-02-20 06:26:00,29.1,18.0,29.82,WSW,257,0.0,6.0,64,0.00,,,0.00,weatherlink.com 1.10,2013-02-20 11:26:00,
2013-02-20 06:41:00,29.1,19.0,29.82,West,269,1.0,4.0,66,0.00,,,0.00,weatherlink.com 1.10,2013-02-20 11:41:00,
2013-02-20 06:56:00,29.4,19.0,29.83,SW,217,5.0,11.0,64,0.00,,,0.00,weatherlink.com 1.10,2013-02-20 11:56:00,
2013-02-20 07:11:00,29.1,16.0,29.84,WNW,285,3.0,10.0,59,0.00,,,0.00,weatherlink.com 1.10,2013-02-20 12:11:00,
2013-02-20 07:26:00,28.8,15.0,29.85,North,356,2.0,10.0,57,0.00,,,0.00,weatherlink.com 1.10,2013-02-20 12:26:00,
2013-02-20 07:41:00,28.7,15.0,29.86,NW,307,3.0,12.0,57,0.00,,,0.00,weatherlink.com 1.10,2013-02-20 12:41:00,
2013-02-20 07:56:00,28.5,14.0,29.87,North,7,1.0,10.0,56,0.00,,,0.00,weatherlink.com 1.10,2013-02-20 12:56:00,
2013-02-20 08:11:00,28.7,13.0,29.87,North,360,7.0,8.0,53,0.00,,,0.00,weatherlink.com 1.10,2013-02-20 13:11:00,
2013-02-20 08:26:00,29.0,12.0,29.86,WNW,295,0.0,10.0,50,0.00,,,0.00,weatherlink.com 1.10,2013-02-20 13:26:00,
2013-02-20 08:41:00,29.1,12.0,29.88,West,269,4.0,8.0,50,0.00,,,0.00,weatherlink.com 1.10,2013-02-20 13:41:00,
2013-02-20 08:56:00,29.4,13.0,29.88,NE,56,2.0,13.0,50,0.00,,,0.00,weatherlink.com 1.10,2013-02-20 13:56:00,
2013-02-20 09:11:00,29.5,13.0,29.88,West,278,1.0,11.0,50,0.00,,,0.00,weatherlink.com 1.10,2013-02-20 14:11:00,
2013-02-20 09:26:00,29.8,13.0,29.88,NNW,337,1.0,9.0,49,0.00,,,0.00,weatherlink.com 1.10,2013-02-20 14:26:00,
2013-02-20 09:41:00,29.7,13.0,29.88,West,266,5.0,11.0,50,0.00,,,0.00,weatherlink.com 1.10,2013-02-20 14:41:00,
2013-02-20 09:56:00,30.5,13.0,29.88,NNE,32,6.0,9.0,49,0.00,,,0.00,weatherlink.com 1.10,2013-02-20 14:56:00,
2013-02-20 10:11:00,29.6,15.0,29.88,NW,312,8.0,8.0,55,0.00,,,0.00,weatherlink.com 1.10,2013-02-20 15:11:00,
2013-02-20 10:26:00,29.5,16.0,29.88,WNW,293,4.0,8.0,58,0.00,,,0.00,weatherlink.com 1.10,2013-02-20 15:26:00,
2013-02-20 10:41:00,29.7,16.0,29.88,SW,217,3.0,8.0,56,0.00,,,0.00,weatherlink.com 1.10,2013-02-20 15:41:00,
2013-02-20 10:56:00,29.3,14.0,29.88,West,267,5.0,9.0,53,0.00,,,0.00,weatherlink.com 1.10,2013-02-20 15:56:00,
2013-02-20 11:11:00,29.6,13.0,29.87,NNE,25,7.0,10.0,51,0.00,,,0.00,weatherlink.com 1.10,2013-02-20 16:11:00,
2013-02-20 11:26:00,29.5,13.0,29.87,NNE,23,8.0,13.0,50,0.00,,,0.00,weatherlink.com 1.10,2013-02-20 16:26:00,
2013-02-20 11:41:00,30.0,13.0,29.86,NNW,341,2.0,10.0,50,0.00,,,0.00,weatherlink.com 1.10,2013-02-20 16:41:00,
2013-02-20 11:56:00,29.9,12.0,29.86,North,359,4.0,13.0,48,0.00,,,0.00,weatherlink.com 1.10,2013-02-20 16:56:00,
2013-02-20 12:11:00,30.4,13.0,29.86,SSW,198,3.0,11.0,48,0.00,,,0.00,weatherlink.com 1.10,2013-02-20 17:11:00,
2013-02-20 12:26:00,31.2,12.0,29.86,NNW,328,6.0,11.0,46,0.00,,,0.00,weatherlink.com 1.10,2013-02-20 17:26:00,
2013-02-20 12:41:00,31.1,12.0,29.86,NNW,335,5.0,11.0,46,0.00,,,0.00,weatherlink.com 1.10,2013-02-20 17:41:00,
2013-02-20 12:57:00,30.4,12.0,29.86,NNE,15,7.0,11.0,47,0.00,,,0.00,weatherlink.com 1.10,2013-02-20 17:57:00,
2013-02-20 13:12:00,30.9,13.0,29.86,WSW,243,5.0,10.0,47,0.00,,,0.00,weatherlink.com 1.10,2013-02-20 18:12:00,
2013-02-20 13:27:00,30.2,13.0,29.86,WSW,250,8.0,12.0,48,0.00,,,0.00,weatherlink.com 1.10,2013-02-20 18:27:00,
2013-02-20 13:42:00,29.7,13.0,29.86,WSW,242,7.0,12.0,49,0.00,,,0.00,weatherlink.com 1.10,2013-02-20 18:42:00,
2013-02-20 13:57:00,30.3,12.0,29.86,North,6,4.0,10.0,47,0.00,,,0.00,weatherlink.com 1.10,2013-02-20 18:57:00,
2013-02-20 14:12:00,30.8,13.0,29.86,West,260,3.0,14.0,47,0.00,,,0.00,weatherlink.com 1.10,2013-02-20 19:12:00,
2013-02-20 14:27:00,30.9,12.0,29.87,West,277,9.0,12.0,45,0.00,,,0.00,weatherlink.com 1.10,2013-02-20 19:27:00,
2013-02-20 14:42:00,30.8,12.0,29.87,NNW,345,2.0,11.0,45,0.00,,,0.00,weatherlink.com 1.10,2013-02-20 19:42:00,
2013-02-20 14:57:00,30.4,10.0,29.87,WNW,301,6.0,14.0,43,0.00,,,0.00,weatherlink.com 1.10,2013-02-20 19:57:00,
2013-02-20 15:12:00,31.1,11.0,29.88,WNW,288,1.0,8.0,44,0.00,,,0.00,weatherlink.com 1.10,2013-02-20 20:12:00,
2013-02-20 15:27:00,30.7,11.0,29.88,WNW,294,1.0,7.0,44,0.00,,,0.00,weatherlink.com 1.10,2013-02-20 20:27:00,
2013-02-20 15:42:00,30.9,12.0,29.89,NNW,334,5.0,12.0,45,0.00,,,0.00,weatherlink.com 1.10,2013-02-20 20:42:00,
2013-02-20 15:57:00,30.3,12.0,29.89,NNW,329,3.0,8.0,46,0.00,,,0.00,weatherlink.com 1.10,2013-02-20 20:57:00,
2013-02-20 16:12:00,30.1,12.0,29.89,NNE,33,3.0,9.0,47,0.00,,,0.00,weatherlink.com 1.10,2013-02-20 21:12:00,
2013-02-20 16:27:00,30.3,12.0,29.90,WNW,301,4.0,12.0,46,0.00,,,0.00,weatherlink.com 1.10,2013-02-20 21:27:00,
2013-02-20 16:42:00,29.3,11.0,29.90,NW,324,1.0,13.0,47,0.00,,,0.00,weatherlink.com 1.10,2013-02-20 21:42:00,
2013-02-20 16:57:00,29.1,12.0,29.90,NW,326,2.0,9.0,48,0.00,,,0.00,weatherlink.com 1.10,2013-02-20 21:57:00,
2013-02-20 17:12:00,29.1,12.0,29.91,NE,35,1.0,9.0,48,0.00,,,0.00,weatherlink.com 1.10,2013-02-20 22:12:00,
2013-02-20 17:27:00,28.6,12.0,29.91,WSW,257,6.0,11.0,49,0.00,,,0.00,weatherlink.com 1.10,2013-02-20 22:27:00,
2013-02-20 17:42:00,28.2,12.0,29.93,WSW,238,1.0,9.0,52,0.00,,,0.00,weatherlink.com 1.10,2013-02-20 22:42:00,
2013-02-20 17:57:00,28.0,13.0,29.93,WNW,295,1.0,7.0,54,0.00,,,0.00,weatherlink.com 1.10,2013-02-20 22:57:00,
2013-02-20 18:12:00,28.1,13.0,29.94,WNW,302,3.0,7.0,53,0.00,,,0.00,weatherlink.com 1.10,2013-02-20 23:12:00,
2013-02-20 18:27:00,28.1,13.0,29.95,WNW,297,3.0,9.0,53,0.00,,,0.00,weatherlink.com 1.10,2013-02-20 23:27:00,
2013-02-20 18:42:00,28.1,13.0,29.95,North,356,3.0,8.0,53,0.00,,,0.00,weatherlink.com 1.10,2013-02-20 23:42:00,
2013-02-20 18:57:00,28.1,13.0,29.96,SW,231,0.0,11.0,54,0.00,,,0.00,weatherlink.com 1.10,2013-02-20 23:57:00,
2013-02-20 19:12:00,27.6,14.0,29.96,NNE,28,2.0,7.0,58,0.00,,,0.00,weatherlink.com 1.10,2013-02-21 00:12:00,
2013-02-20 19:27:00,27.2,14.0,29.96,WNW,291,0.0,10.0,58,0.00,,,0.00,weatherlink.com 1.10,2013-02-21 00:27:00,
2013-02-20 19:42:00,26.9,14.0,29.96,WNW,285,2.0,7.0,59,0.00,,,0.00,weatherlink.com 1.10,2013-02-21 00:42:00,
2013-02-20 19:57:00,26.7,14.0,29.97,NE,39,5.0,11.0,60,0.00,,,0.00,weatherlink.com 1.10,2013-02-21 00:57:00,
2013-02-20 20:12:00,26.6,14.0,29.97,NNW,329,2.0,9.0,60,0.00,,,0.00,weatherlink.com 1.10,2013-02-21 01:12:00,
2013-02-20 20:27:00,26.4,14.0,29.96,North,7,3.0,7.0,60,0.00,,,0.00,weatherlink.com 1.10,2013-02-21 01:27:00,
2013-02-20 20:42:00,26.1,13.0,29.96,WNW,298,1.0,9.0,59,0.00,,,0.00,weatherlink.com 1.10,2013-02-21 01:42:00,
2013-02-20 20:57:00,26.0,12.0,29.97,SW,234,2.0,9.0,55,0.00,,,0.00,weatherlink.com 1.10,2013-02-21 01:57:00,
2013-02-20 21:12:00,25.8,11.0,29.98,WNW,286,1.0,8.0,53,0.00,,,0.00,weatherlink.com 1.10,2013-02-21 02:12:00,
2013-02-20 21:27:00,25.5,10.0,29.98,NE,39,3.0,5.0,53,0.00,,,0.00,weatherlink.com 1.10,2013-02-21 02:27:00,
2013-02-20 21:42:00,25.4,10.0,29.98,West,274,2.0,5.0,53,0.00,,,0.00,weatherlink.com 1.10,2013-02-21 02:42:00,
2013-02-20 21:58:00,25.3,10.0,29.98,WNW,290,2.0,8.0,53,0.00,,,0.00,weatherlink.com 1.10,2013-02-21 02:58:00,
2013-02-20 22:13:00,25.1,10.0,29.99,ESE,120,1.0,6.0,53,0.00,,,0.00,weatherlink.com 1.10,2013-02-21 03:13:00,
2013-02-20 22:28:00,24.9,11.0,29.99,WNW,295,2.0,6.0,55,0.00,,,0.00,weatherlink.com 1.10,2013-02-21 03:28:00,
2013-02-20 22:43:00,24.7,11.0,29.99,WNW,290,0.0,4.0,55,0.00,,,0.00,weatherlink.com 1.10,2013-02-21 03:43:00,
2013-02-20 22:58:00,24.5,11.0,29.99,NNW,345,2.0,4.0,56,0.00,,,0.00,weatherlink.com 1.10,2013-02-21 03:58:00,
2013-02-20 23:13:00,24.4,10.0,29.99,NNW,347,2.0,8.0,55,0.00,,,0.00,weatherlink.com 1.10,2013-02-21 04:13:00,
2013-02-20 23:28:00,24.3,11.0,30.00,SW,221,1.0,9.0,56,0.00,,,0.00,weatherlink.com 1.10,2013-02-21 04:28:00,
2013-02-20 23:43:00,24.1,10.0,30.00,West,267,4.0,9.0,56,0.00,,,0.00,weatherlink.com 1.10,2013-02-21 04:43:00,
2013-02-20 23:58:00,24.0,11.0,30.00,SW,231,3.0,5.0,57,0.00,,,0.00,weatherlink.com 1.10,2013-02-21 04:58:00,